Time;durP1;ratioP1;P1;durP2;ratioP2;P2;SDS_P1;SDS_P2;PMS_P1;PMS_P2;Temp;Humidity;BMP_temperature;BMP_pressure;BME280_temperature;BME280_humidity;BME280_pressure;Samples;Min_cycle;Max_cycle;Signal;HPM_P1;HPM_P2
2021/08/03 04:57:24;;;;;;;;;;;;;;;5.55;100.00;99375.25;5729087;23;20099;31
2021/08/03 05:06:07;;;;;;;;;;;;;;;5.95;100.00;99373.19;4963561;28;20375;-93
2021/08/03 05:08:07;;;;;;;;;;;;;;;5.87;100.00;99376.06;4968317;28;19941;-94
2021/08/03 05:10:33;;;;;;;;;;;;;;;5.99;100.00;99367.81;4980453;28;19907;-93
2021/08/03 05:12:58;;;;;;;;;;;;;;;6.08;100.00;99379.84;4973228;28;19962;-91
2021/08/03 05:15:24;;;;;;;;;;;;;;;6.04;100.00;99379.97;4970938;28;19926;-92
2021/08/03 05:17:50;;;;;;;;;;;;;;;6.05;100.00;99368.53;4971048;28;19930;-90
2021/08/03 05:20:15;;;;;;;;;;;;;;;5.99;100.00;99367.81;4969532;28;19985;-89
2021/08/03 05:22:41;;;;;;;;;;;;;;;5.96;100.00;99362.66;4962168;28;19923;-90
2021/08/03 05:25:07;;;;;;;;;;;;;;;6.05;100.00;99368.53;4961249;29;20202;-91
2021/08/03 05:27:32;;;;;;;;;;;;;;;6.09;100.00;99360.50;4962377;28;19926;-91
2021/08/03 05:29:57;;;;;;;;;;;;;;;5.94;100.00;99366.22;4963105;28;19926;-91
2021/08/03 05:32:23;;;;;;;;;;;;;;;5.98;100.00;99355.59;4980323;28;20009;-91
2021/08/03 05:34:49;;;;;;;;;;;;;;;6.23;100.00;99367.97;4979036;28;20353;-91
2021/08/03 05:37:14;;;;;;;;;;;;;;;6.56;100.00;99359.91;4963571;29;19930;-91
2021/08/03 05:39:39;;;;;;;;;;;;;;;6.77;100.00;99353.03;4962970;29;20017;-91
2021/08/03 05:42:05;;;;;;;;;;;;;;;7.12;100.00;99364.13;4962351;29;20281;-90
2021/08/03 05:44:31;;;;;;;;;;;;;;;7.19;100.00;99364.75;4979401;28;19926;-89
2021/08/03 05:46:57;;;;;;;;;;;;;;;6.98;100.00;99369.88;4968092;29;20150;-90
2021/08/03 05:49:23;;;;;;;;;;;;;;;6.88;100.00;99377.22;4987775;28;19922;-90
2021/08/03 05:51:48;;;;;;;;;;;;;;;6.69;100.00;99370.88;4972272;29;20194;-90
2021/08/03 05:54:14;;;;;;;;;;;;;;;6.62;100.00;99386.03;4970310;29;19925;-90
2021/08/03 05:56:41;;;;;;;;;;;;;;;6.48;100.00;99397.00;4985554;28;19933;-90
2021/08/03 05:59:06;;;;;;;;;;;;;;;6.45;100.00;99398.88;4985673;28;19982;-90
2021/08/03 06:01:31;;;;;;;;;;;;;;;6.41;100.00;99399.88;4968864;28;20182;-92
2021/08/03 06:03:57;;;;;;;;;;;;;;;6.51;100.00;99401.28;4968051;28;19929;-91
2021/08/03 06:06:24;;;;;;;;;;;;;;;6.31;100.00;99394.91;4969297;28;19934;-90
2021/08/03 06:08:50;;;;;;;;;;;;;;;6.29;100.00;99396.72;4969711;28;19929;-91
2021/08/03 06:11:16;;;;;;;;;;;;;;;6.28;100.00;99405.50;4985912;28;19962;-92
2021/08/03 06:13:46;;;;;;;;;;;;;;;6.20;100.00;99399.63;4972047;28;19922;-90
2021/08/03 06:16:14;;;;;;;;;;;;;;;6.13;100.00;99401.59;4974258;28;20002;-91
2021/08/03 06:18:43;;;;;;;;;;;;;;;6.23;100.00;99402.16;4975034;28;19977;-89
2021/08/03 06:21:09;;;;;;;;;;;;;;;6.19;100.00;99397.94;4974264;28;19933;-90
2021/08/03 06:23:36;;;;;;;;;;;;;;;6.02;100.00;99394.97;4972556;29;20230;-90
2021/08/03 06:26:02;;;;;;;;;;;;;;;6.09;100.00;99391.22;4975240;28;19985;-90
2021/08/03 06:28:28;;;;;;;;;;;;;;;6.10;100.00;99388.53;4974016;28;20006;-90
2021/08/03 06:30:54;;;;;;;;;;;;;;;6.13;100.00;99377.06;4978665;28;19907;-93
2021/08/03 06:33:23;;;;;;;;;;;;;;;6.09;100.00;99376.28;4983012;28;19973;-95
2021/08/03 06:35:49;;;;;;;;;;;;;;;6.12;100.00;99370.06;4983007;28;19910;-94
2021/08/03 06:38:15;;;;;;;;;;;;;;;6.02;100.00;99363.41;4976478;28;19953;-93
2021/08/03 06:40:50;;;;;;;;;;;;;;;5.93;100.00;99364.50;4972034;29;19946;-91
2021/08/03 06:43:16;;;;;;;;;;;;;;;5.93;100.00;99359.22;4969693;29;20018;-93
2021/08/03 06:45:46;;;;;;;;;;;;;;;6.00;100.00;99356.41;4971137;29;19989;-93
2021/08/03 06:48:13;;;;;;;;;;;;;;;5.92;100.00;99363.63;4971908;29;20009;-91
2021/08/03 06:50:49;;;;;;;;;;;;;;;6.15;100.00;99367.34;4971185;29;19922;-93
2021/08/03 06:53:15;;;;;;;;;;;;;;;5.94;100.00;99350.44;4968619;29;19914;-93
2021/08/03 08:00:18;;;;;;;;;;;;;;;5.61;100.00;99403.97;3049372;26;20275;-90
2021/08/03 17:21:07;;;;;;;;;;;;;;;9.12;100.00;99227.69;5146974;27;19951;-89
2021/08/03 17:23:42;;;;;;;;;;;;;;;8.40;100.00;99223.78;5139249;27;19970;-89
2021/08/03 17:26:07;;;;;;;;;;;;;;;8.18;100.00;99230.84;5126490;28;20457;-89
2021/08/03 17:28:39;;;;;;;;;;;;;;;8.28;100.00;99219.88;5128165;27;19919;-90
2021/08/03 17:31:04;;;;;;;;;;;;;;;8.11;100.00;99221.44;5127626;28;19923;-91
2021/08/03 17:33:30;;;;;;;;;;;;;;;8.03;100.00;99226.19;5127293;27;19924;-90
2021/08/03 17:35:59;;;;;;;;;;;;;;;8.02;100.00;99220.97;5125334;28;19919;-90
2021/08/03 17:38:24;;;;;;;;;;;;;;;8.01;100.00;99230.69;5125375;28;19973;-90
2021/08/03 17:40:53;;;;;;;;;;;;;;;7.99;100.00;99235.16;5093880;28;19935;-89
2021/08/03 17:43:22;;;;;;;;;;;;;;;7.96;100.00;99227.34;5095626;28;19956;-89
2021/08/03 17:45:51;;;;;;;;;;;;;;;7.91;100.00;99221.41;5117961;27;19924;-89
2021/08/03 17:48:23;;;;;;;;;;;;;;;7.96;100.00;99212.41;5111902;28;19920;-89
2021/08/03 17:50:50;;;;;;;;;;;;;;;7.91;100.00;99231.97;5113828;28;19927;-89
2021/08/03 17:53:20;;;;;;;;;;;;;;;7.86;100.00;99226.88;5135364;28;19915;-91
2021/08/03 17:55:48;;;;;;;;;;;;;;;7.82;100.00;99223.50;5134051;27;19919;-89
2021/08/03 17:58:14;;;;;;;;;;;;;;;7.87;100.00;99222.47;5128237;27;19953;-89
2021/08/03 18:00:42;;;;;;;;;;;;;;;7.88;99.61;99226.81;5145549;27;20314;-89
2021/08/03 18:03:08;;;;;;;;;;;;;;;7.85;100.00;99222.53;5135373;27;19927;-89
2021/08/03 18:05:36;;;;;;;;;;;;;;;7.81;99.25;99227.06;5140991;27;19951;-88
2021/08/03 18:08:02;;;;;;;;;;;;;;;7.73;100.00;99223.88;5134177;27;19927;-89
2021/08/03 18:10:28;;;;;;;;;;;;;;;7.77;100.00;99225.47;5130913;27;20215;-89
2021/08/03 18:12:53;;;;;;;;;;;;;;;7.72;100.00;99231.84;5127693;27;19924;-90
2021/08/03 18:15:19;;;;;;;;;;;;;;;7.70;100.00;99231.06;5118337;28;20298;-90
2021/08/03 18:17:48;;;;;;;;;;;;;;;7.66;100.00;99238.25;5131392;27;20214;-89
2021/08/03 18:20:14;;;;;;;;;;;;;;;7.67;100.00;99239.94;5120409;27;19923;-90
2021/08/03 18:22:40;;;;;;;;;;;;;;;7.70;100.00;99242.44;5129375;27;19920;-89
2021/08/03 18:25:09;;;;;;;;;;;;;;;7.67;100.00;99253.13;5134711;27;20221;-89
2021/08/03 18:27:40;;;;;;;;;;;;;;;7.75;99.33;99251.03;5115723;27;20283;-90
2021/08/03 18:30:14;;;;;;;;;;;;;;;7.64;99.79;99250.59;5138555;27;19953;-89
2021/08/03 18:32:45;;;;;;;;;;;;;;;7.72;99.21;99248.53;5122497;27;19920;-89
2021/08/03 18:35:12;;;;;;;;;;;;;;;7.60;98.74;99256.94;5126162;27;20339;-89
2021/08/03 18:37:43;;;;;;;;;;;;;;;7.63;100.00;99262.94;5099414;27;19919;-89
2021/08/03 18:40:10;;;;;;;;;;;;;;;7.65;99.20;99260.25;5092304;28;19923;-89
2021/08/03 18:42:42;;;;;;;;;;;;;;;7.55;100.00;99262.38;5104566;27;20210;-90
2021/08/03 18:45:09;;;;;;;;;;;;;;;8.35;100.00;99260.94;5099493;27;19920;-87
2021/08/03 18:47:35;;;;;;;;;;;;;;;8.01;100.00;99259.72;5102060;27;19920;-87
2021/08/03 18:50:02;;;;;;;;;;;;;;;7.91;100.00;99251.28;5102868;28;19930;-86
2021/08/03 18:52:27;;;;;;;;;;;;;;;7.81;99.25;99263.97;5101178;27;19931;-87
2021/08/03 18:54:53;;;;;;;;;;;;;;;7.72;99.82;99264.38;5097496;28;20211;-88
2021/08/03 18:57:19;;;;;;;;;;;;;;;7.73;99.93;99270.50;5121088;27;19924;-88
2021/08/03 18:59:45;;;;;;;;;;;;;;;7.69;99.67;99268.88;5110866;27;19924;-88
2021/08/03 19:02:11;;;;;;;;;;;;;;;7.70;99.01;99267.97;5123116;27;19930;-88
2021/08/03 19:04:37;;;;;;;;;;;;;;;7.61;98.86;99266.53;5103131;27;19920;-88
2021/08/03 19:09:58;;;;;;;;;;;;;;;7.68;99.10;99275.94;5111737;27;19927;-86
2021/08/03 19:12:27;;;;;;;;;;;;;;;7.72;98.84;99277.56;5111976;28;19955;-87
2021/08/03 19:14:58;;;;;;;;;;;;;;;7.64;99.27;99271.69;5120714;28;19920;-86
2021/08/03 19:17:29;;;;;;;;;;;;;;;7.67;98.56;99279.50;5120400;28;19920;-89
2021/08/03 19:19:57;;;;;;;;;;;;;;;7.67;99.04;99290.03;5119766;28;19951;-88
2021/08/03 19:22:30;;;;;;;;;;;;;;;7.67;99.87;99294.47;5102192;28;19931;-88
2021/08/03 19:24:57;;;;;;;;;;;;;;;7.59;98.90;99292.97;5101209;28;19938;-87
2021/08/03 19:27:23;;;;;;;;;;;;;;;7.60;98.54;99296.47;5101949;28;19919;-86
2021/08/03 19:29:48;;;;;;;;;;;;;;;7.63;97.82;99301.63;5102338;28;20029;-88
2021/08/03 19:32:14;;;;;;;;;;;;;;;7.60;97.97;99307.88;5102503;28;19955;-86
2021/08/03 19:34:40;;;;;;;;;;;;;;;7.55;98.53;99303.72;5101505;28;19924;-86
2021/08/03 19:37:05;;;;;;;;;;;;;;;7.61;97.85;99308.72;5101717;28;20006;-86
2021/08/03 19:39:33;;;;;;;;;;;;;;;7.46;98.66;99316.31;5119472;28;20313;-88
2021/08/03 19:42:00;;;;;;;;;;;;;;;7.46;99.09;99316.31;5119011;28;19927;-88
2021/08/03 19:44:26;;;;;;;;;;;;;;;7.58;97.47;99322.91;5118999;28;19919;-89
2021/08/03 19:46:52;;;;;;;;;;;;;;;7.60;97.42;99317.56;5099135;28;20002;-88
2021/08/03 19:49:21;;;;;;;;;;;;;;;7.54;97.69;99323.06;5119816;28;19977;-88
2021/08/03 19:51:50;;;;;;;;;;;;;;;7.56;97.71;99332.66;5101829;28;19972;-89
2021/08/03 19:54:15;;;;;;;;;;;;;;;7.60;96.76;99330.75;5119706;28;20313;-87
2021/08/03 19:56:41;;;;;;;;;;;;;;;7.58;96.43;99332.59;5101863;28;19920;-87
2021/08/03 19:59:11;;;;;;;;;;;;;;;7.49;97.99;99335.59;5101961;28;19924;-87
2021/08/03 20:01:37;;;;;;;;;;;;;;;7.46;96.58;99339.19;5119359;28;19936;-88
2021/08/03 20:04:02;;;;;;;;;;;;;;;7.47;96.32;99338.28;5102044;28;19926;-87
2021/08/03 20:06:28;;;;;;;;;;;;;;;7.51;96.92;99345.13;5117174;28;19973;-87
2021/08/03 20:08:53;;;;;;;;;;;;;;;7.40;96.26;99340.28;5119797;28;20306;-89
2021/08/03 20:11:19;;;;;;;;;;;;;;;7.50;96.35;99339.91;5101443;28;19927;-87
2021/08/03 20:13:46;;;;;;;;;;;;;;;7.51;97.03;99339.84;5119806;28;19947;-87
2021/08/03 20:16:11;;;;;;;;;;;;;;;7.46;96.36;99336.53;5117744;28;20002;-88
2021/08/03 20:18:39;;;;;;;;;;;;;;;7.49;96.27;99335.59;5118290;28;20001;-88
2021/08/03 20:21:04;;;;;;;;;;;;;;;7.41;96.36;99331.44;5119225;28;19919;-89
2021/08/03 20:23:29;;;;;;;;;;;;;;;7.46;96.42;99334.75;5101362;28;19938;-88
2021/08/03 20:25:56;;;;;;;;;;;;;;;7.48;95.57;99329.44;5119205;28;20298;-87
2021/08/03 20:28:25;;;;;;;;;;;;;;;9.04;97.00;99320.53;5115433;28;19920;-87
2021/08/03 20:30:55;;;;;;;;;;;;;;;7.92;99.20;99336.56;5104326;28;19931;-87
2021/08/03 20:33:23;;;;;;;;;;;;;;;7.72;96.51;99327.66;5110045;28;19930;-88
2021/08/03 20:35:50;;;;;;;;;;;;;;;7.53;96.81;99332.78;5101953;28;20006;-87
2021/08/03 20:38:18;;;;;;;;;;;;;;;7.53;96.82;99339.81;5098703;28;19919;-87
2021/08/03 20:40:48;;;;;;;;;;;;;;;7.48;97.41;99341.75;5115431;28;20364;-87
2021/08/03 20:43:15;;;;;;;;;;;;;;;7.57;97.05;99346.69;5103594;28;19942;-86
2021/08/03 20:45:42;;;;;;;;;;;;;;;7.39;96.84;99338.56;5118143;28;19957;-85
2021/08/03 20:48:08;;;;;;;;;;;;;;;7.39;96.82;99338.56;5108625;28;19919;-85
2021/08/03 20:50:34;;;;;;;;;;;;;;;7.34;96.38;99335.22;5099131;28;19920;-87
2021/08/03 20:53:01;;;;;;;;;;;;;;;7.37;96.71;99332.47;5115408;28;19979;-88
2021/08/03 20:55:27;;;;;;;;;;;;;;;7.45;95.83;99335.69;5118516;28;19920;-86
2021/08/03 20:57:53;;;;;;;;;;;;;;;7.49;96.55;99335.59;5101779;28;19931;-85
2021/08/03 21:00:19;;;;;;;;;;;;;;;7.43;96.26;99337.50;5095874;28;19931;-88
2021/08/03 21:02:45;;;;;;;;;;;;;;;7.36;96.27;99340.44;5101455;28;20263;-87
2021/08/03 21:05:12;;;;;;;;;;;;;;;7.42;97.76;99346.34;5118984;28;19923;-86
2021/08/03 21:07:40;;;;;;;;;;;;;;;7.49;96.75;99348.75;5101367;28;20010;-86
2021/08/03 21:10:06;;;;;;;;;;;;;;;7.50;97.20;99347.81;5101376;28;19920;-87
2021/08/03 21:12:32;;;;;;;;;;;;;;;7.39;97.63;99343.81;5097872;28;19981;-87
2021/08/03 21:14:57;;;;;;;;;;;;;;;7.33;96.63;99345.81;5099354;28;19923;-87
2021/08/03 21:17:23;;;;;;;;;;;;;;;7.42;97.15;99353.41;5088501;28;19984;-88
2021/08/03 21:19:48;;;;;;;;;;;;;;;7.49;95.93;99351.41;5119804;28;19985;-86
2021/08/03 21:22:14;;;;;;;;;;;;;;;7.34;97.49;99356.31;5101638;28;19963;-87
2021/08/03 21:24:39;;;;;;;;;;;;;;;7.35;97.02;99355.38;5106162;28;20011;-87
2021/08/03 21:27:04;;;;;;;;;;;;;;;7.44;96.47;99355.06;5098443;28;20379;-87
2021/08/03 21:29:30;;;;;;;;;;;;;;;7.33;96.52;99357.22;5099031;28;20073;-87
2021/08/03 21:31:56;;;;;;;;;;;;;;;7.51;95.35;99354.81;5114073;28;19920;-87
2021/08/03 21:34:22;;;;;;;;;;;;;;;7.39;96.34;99357.00;5101767;28;19939;-86
2021/08/03 21:36:48;;;;;;;;;;;;;;;7.42;96.23;99351.63;5102477;28;19930;-87
2021/08/03 21:39:14;;;;;;;;;;;;;;;7.40;96.21;99360.50;5119988;28;20189;-87
2021/08/03 21:41:39;;;;;;;;;;;;;;;7.37;96.54;99353.56;5102826;28;19916;-87
2021/08/03 21:44:04;;;;;;;;;;;;;;;7.39;95.78;99357.00;5120827;28;20444;-87
2021/08/03 21:46:30;;;;;;;;;;;;;;;7.35;96.96;99354.53;5120133;28;19923;-87
2021/08/03 21:48:56;;;;;;;;;;;;;;;7.35;96.40;99344.84;5119864;28;20394;-87
2021/08/03 21:51:21;;;;;;;;;;;;;;;7.31;96.73;99350.28;5115067;28;20006;-88
2021/08/03 21:53:47;;;;;;;;;;;;;;;7.33;96.74;99346.69;5120195;28;19932;-88
2021/08/03 21:56:12;;;;;;;;;;;;;;;7.32;96.58;99344.09;5120490;28;20206;-87
2021/08/03 21:58:38;;;;;;;;;;;;;;;7.31;95.74;99345.88;5120507;28;19920;-88
2021/08/03 22:01:03;;;;;;;;;;;;;;;7.35;96.47;99351.91;5102111;28;19935;-88
2021/08/03 22:03:30;;;;;;;;;;;;;;;7.42;95.44;99350.78;5116331;28;19919;-86
2021/08/03 22:05:55;;;;;;;;;;;;;;;7.39;95.33;99350.88;5103062;28;19945;-88
2021/08/03 22:08:20;;;;;;;;;;;;;;;7.27;95.12;99354.81;5124716;28;19924;-87
2021/08/03 22:10:46;;;;;;;;;;;;;;;7.30;95.56;99346.78;5106591;28;19920;-88
2021/08/03 22:13:11;;;;;;;;;;;;;;;7.26;94.80;99355.75;5119803;28;19923;-87
2021/08/03 22:15:36;;;;;;;;;;;;;;;7.26;95.04;99346.06;5122351;28;19980;-87
2021/08/03 22:18:02;;;;;;;;;;;;;;;7.39;96.11;99345.63;5123785;28;19924;-87
2021/08/03 22:20:28;;;;;;;;;;;;;;;7.31;94.67;99345.00;5123961;28;19939;-86
2021/08/03 22:22:53;;;;;;;;;;;;;;;7.32;94.56;99334.41;5123553;28;20310;-88
2021/08/03 22:25:18;;;;;;;;;;;;;;;7.26;94.68;99342.56;5119094;28;19947;-88
2021/08/03 22:27:44;;;;;;;;;;;;;;;7.23;96.23;99348.78;5105562;28;19988;-89
2021/08/03 22:30:09;;;;;;;;;;;;;;;7.32;96.04;99349.38;5123568;28;20213;-87
2021/08/03 22:32:35;;;;;;;;;;;;;;;7.32;96.07;99352.84;5124289;28;19985;-87
2021/08/03 22:35:00;;;;;;;;;;;;;;;7.27;95.40;99357.44;5124029;28;20256;-87
2021/08/03 22:37:26;;;;;;;;;;;;;;;7.27;95.64;99357.44;5123530;28;19959;-87
2021/08/03 22:39:51;;;;;;;;;;;;;;;7.25;96.89;99354.84;5123618;28;19955;-87
2021/08/03 22:42:16;;;;;;;;;;;;;;;7.20;95.07;99355.97;5123639;28;19928;-87
2021/08/03 22:44:42;;;;;;;;;;;;;;;7.26;93.79;99350.47;5105475;28;19931;-87
2021/08/03 22:47:07;;;;;;;;;;;;;;;7.24;95.41;99352.28;5106328;28;19930;-87
2021/08/03 22:49:32;;;;;;;;;;;;;;;7.26;95.61;99351.31;5124284;28;20191;-88
2021/08/03 22:51:57;;;;;;;;;;;;;;;7.19;95.23;99359.50;5124848;28;20024;-88
2021/08/03 22:54:23;;;;;;;;;;;;;;;7.21;95.71;99362.94;5105944;28;20294;-87
2021/08/03 22:56:49;;;;;;;;;;;;;;;7.19;96.69;99370.03;5105429;28;20309;-87
2021/08/03 22:59:14;;;;;;;;;;;;;;;7.19;94.67;99370.88;5104419;28;19970;-87
2021/08/03 23:01:40;;;;;;;;;;;;;;;7.34;94.12;99363.34;5104600;28;19923;-87
2021/08/03 23:04:05;;;;;;;;;;;;;;;7.26;93.89;99366.28;5122289;28;19964;-87
2021/08/03 23:06:30;;;;;;;;;;;;;;;7.21;93.29;99365.56;5103863;28;19926;-87
2021/08/03 23:08:56;;;;;;;;;;;;;;;7.22;93.92;99364.66;5122384;28;19920;-87
2021/08/03 23:11:21;;;;;;;;;;;;;;;7.18;93.71;99363.03;5104411;28;19921;-87
2021/08/03 23:13:46;;;;;;;;;;;;;;;7.26;92.93;99361.00;5122568;28;20023;-87
2021/08/03 23:16:11;;;;;;;;;;;;;;;7.17;93.86;99362.19;5104084;28;19919;-87
2021/08/03 23:18:37;;;;;;;;;;;;;;;7.12;93.50;99369.41;5104363;28;19931;-87
2021/08/03 23:21:03;;;;;;;;;;;;;;;7.16;94.37;99365.72;5104313;28;19923;-86
2021/08/03 23:23:29;;;;;;;;;;;;;;;7.20;94.61;99366.50;5122691;28;19973;-87
2021/08/03 23:25:54;;;;;;;;;;;;;;;7.15;94.63;99360.50;5122247;28;19991;-87
2021/08/03 23:28:20;;;;;;;;;;;;;;;7.18;94.22;99363.03;5104357;28;20044;-87
2021/08/03 23:30:45;;;;;;;;;;;;;;;7.26;94.65;99366.28;5103634;28;19920;-86
2021/08/03 23:33:10;;;;;;;;;;;;;;;7.18;94.02;99360.41;5103850;28;19922;-87
2021/08/03 23:35:36;;;;;;;;;;;;;;;7.15;94.73;99363.13;5121974;28;19924;-87
2021/08/03 23:38:01;;;;;;;;;;;;;;;7.15;95.03;99358.75;5122243;28;19920;-87
2021/08/03 23:40:27;;;;;;;;;;;;;;;7.14;93.37;99361.44;5121729;28;20191;-87
2021/08/03 23:42:52;;;;;;;;;;;;;;;7.19;94.74;99349.81;5104087;28;19919;-87
2021/08/03 23:45:18;;;;;;;;;;;;;;;7.13;94.38;99365.84;5103853;28;19931;-87
2021/08/03 23:47:43;;;;;;;;;;;;;;;7.11;93.84;99358.91;5121557;28;19951;-88
2021/08/03 23:50:09;;;;;;;;;;;;;;;7.16;93.64;99365.72;5122000;28;20202;-87
